Newburg, North Dakota
Current Conditions -  °F | °C
As of 6:58 PM on Wednesday 17 Dec 2014 (Local Time) from KMIB Reporting Station
Clear Clear  
Wind Chill: -6°   Ceiling: Unl
Heat Index:   Visibility: 10mi
Dew Point:   Wind: 8mph
Humidity: 95%   Direction: 150°SSE
Pressure: 30.18"   Gusts: NA
Location:  48.72°N, 100.91°W
Report Text: KMIB 180058Z AUTO 15007KT 10SM CLR M14/M15 A3018 RMK AO2 SLP265 T11421148 $
Loading
Personal Weather Stations






























Interactive Weather Map New forecast layout! Learn more

10-Day Weather Forecast

Advertisements
Track Severe Weather on mobile